sensor_id;sensor_type;location;lat;lon;timestamp;temperature;humidity
69677;DHT22;56914;51.058;9.326;2023-02-24T00:00:52;13.50;60.90
69677;DHT22;56914;51.058;9.326;2023-02-24T00:01:58;13.50;60.90
69677;DHT22;56914;51.058;9.326;2023-02-24T00:03:05;13.60;60.90
69677;DHT22;56914;51.058;9.326;2023-02-24T00:04:13;13.50;60.90
69677;DHT22;56914;51.058;9.326;2023-02-24T00:05:16;13.60;60.90
69677;DHT22;56914;51.058;9.326;2023-02-24T00:06:20;13.60;60.90
69677;DHT22;56914;51.058;9.326;2023-02-24T00:07:24;13.50;60.80
69677;DHT22;56914;51.058;9.326;2023-02-24T00:08:31;13.60;60.90
69677;DHT22;56914;51.058;9.326;2023-02-24T00:09:33;13.60;60.80
69677;DHT22;56914;51.058;9.326;2023-02-24T00:10:38;13.60;60.80
69677;DHT22;56914;51.058;9.326;2023-02-24T00:11:42;13.60;60.70
69677;DHT22;56914;51.058;9.326;2023-02-24T00:12:47;13.60;60.80
69677;DHT22;56914;51.058;9.326;2023-02-24T00:13:53;13.60;60.70
69677;DHT22;56914;51.058;9.326;2023-02-24T00:15:02;13.60;60.70
69677;DHT22;56914;51.058;9.326;2023-02-24T00:16:06;13.60;60.70
69677;DHT22;56914;51.058;9.326;2023-02-24T00:17:11;13.60;60.70
69677;DHT22;56914;51.058;9.326;2023-02-24T00:18:15;13.60;60.70
69677;DHT22;56914;51.058;9.326;2023-02-24T00:19:28;13.60;60.70
69677;DHT22;56914;51.058;9.326;2023-02-24T00:20:35;13.60;60.70
69677;DHT22;56914;51.058;9.326;2023-02-24T00:21:38;13.60;60.80
69677;DHT22;56914;51.058;9.326;2023-02-24T00:22:43;13.60;60.70
69677;DHT22;56914;51.058;9.326;2023-02-24T00:23:47;13.60;60.80
69677;DHT22;56914;51.058;9.326;2023-02-24T00:24:49;13.60;60.70
69677;DHT22;56914;51.058;9.326;2023-02-24T00:25:57;13.60;60.70
69677;DHT22;56914;51.058;9.326;2023-02-24T00:27:04;13.60;60.60
69677;DHT22;56914;51.058;9.326;2023-02-24T00:28:09;13.60;60.70
69677;DHT22;56914;51.058;9.326;2023-02-24T00:29:15;13.60;60.70
69677;DHT22;56914;51.058;9.326;2023-02-24T00:30:18;13.60;60.70
69677;DHT22;56914;51.058;9.326;2023-02-24T00:31:22;13.60;60.70
69677;DHT22;56914;51.058;9.326;2023-02-24T00:32:26;13.60;60.70
69677;DHT22;56914;51.058;9.326;2023-02-24T00:33:29;13.60;60.70
69677;DHT22;56914;51.058;9.326;2023-02-24T00:34:35;13.50;60.70
69677;DHT22;56914;51.058;9.326;2023-02-24T00:35:38;13.50;60.70
69677;DHT22;56914;51.058;9.326;2023-02-24T00:36:48;13.50;60.70
69677;DHT22;56914;51.058;9.326;2023-02-24T00:37:52;13.50;60.70
69677;DHT22;56914;51.058;9.326;2023-02-24T00:38:58;13.50;60.70
69677;DHT22;56914;51.058;9.326;2023-02-24T00:40:01;13.50;60.70
69677;DHT22;56914;51.058;9.326;2023-02-24T00:41:13;13.50;60.70
69677;DHT22;56914;51.058;9.326;2023-02-24T00:42:17;13.50;60.70
69677;DHT22;56914;51.058;9.326;2023-02-24T00:43:20;13.50;60.60
69677;DHT22;56914;51.058;9.326;2023-02-24T00:44:23;13.50;60.60
69677;DHT22;56914;51.058;9.326;2023-02-24T00:45:29;13.50;60.70
69677;DHT22;56914;51.058;9.326;2023-02-24T00:46:37;13.50;60.70
69677;DHT22;56914;51.058;9.326;2023-02-24T00:47:44;13.50;60.70
69677;DHT22;56914;51.058;9.326;2023-02-24T00:48:48;13.40;60.70
69677;DHT22;56914;51.058;9.326;2023-02-24T00:49:56;13.50;60.80
69677;DHT22;56914;51.058;9.326;2023-02-24T00:51:00;13.40;60.70
69677;DHT22;56914;51.058;9.326;2023-02-24T00:52:03;13.40;60.70
69677;DHT22;56914;51.058;9.326;2023-02-24T00:53:07;13.40;60.70
69677;DHT22;56914;51.058;9.326;2023-02-24T00:54:11;13.40;60.80
69677;DHT22;56914;51.058;9.326;2023-02-24T00:55:15;13.30;60.70
69677;DHT22;56914;51.058;9.326;2023-02-24T00:56:20;13.30;60.80
69677;DHT22;56914;51.058;9.326;2023-02-24T00:57:22;13.30;60.80
69677;DHT22;56914;51.058;9.326;2023-02-24T00:58:25;13.30;60.90
69677;DHT22;56914;51.058;9.326;2023-02-24T00:59:30;13.20;60.90
69677;DHT22;56914;51.058;9.326;2023-02-24T01:00:33;13.20;60.90
69677;DHT22;56914;51.058;9.326;2023-02-24T01:01:38;13.20;61.00
69677;DHT22;56914;51.058;9.326;2023-02-24T01:02:42;13.20;61.00
69677;DHT22;56914;51.058;9.326;2023-02-24T01:03:47;13.20;61.10
69677;DHT22;56914;51.058;9.326;2023-02-24T01:04:50;13.20;61.20
69677;DHT22;56914;51.058;9.326;2023-02-24T01:05:53;13.10;61.20
69677;DHT22;56914;51.058;9.326;2023-02-24T01:06:57;13.10;61.20
69677;DHT22;56914;51.058;9.326;2023-02-24T01:08:01;13.10;61.30
69677;DHT22;56914;51.058;9.326;2023-02-24T01:09:06;13.10;61.40
69677;DHT22;56914;51.058;9.326;2023-02-24T01:10:10;13.10;61.40
69677;DHT22;56914;51.058;9.326;2023-02-24T01:11:14;13.10;61.40
69677;DHT22;56914;51.058;9.326;2023-02-24T01:12:35;13.10;61.40
69677;DHT22;56914;51.058;9.326;2023-02-24T01:13:50;13.10;61.40
69677;DHT22;56914;51.058;9.326;2023-02-24T01:14:53;13.10;61.50
69677;DHT22;56914;51.058;9.326;2023-02-24T01:15:58;13.10;61.60
69677;DHT22;56914;51.058;9.326;2023-02-24T01:17:04;13.10;61.60
69677;DHT22;56914;51.058;9.326;2023-02-24T01:18:09;13.10;61.50
69677;DHT22;56914;51.058;9.326;2023-02-24T01:19:12;13.00;61.50
69677;DHT22;56914;51.058;9.326;2023-02-24T01:20:15;13.00;61.50
69677;DHT22;56914;51.058;9.326;2023-02-24T01:21:19;13.00;61.60
69677;DHT22;56914;51.058;9.326;2023-02-24T01:22:22;13.00;61.60
69677;DHT22;56914;51.058;9.326;2023-02-24T01:23:26;13.00;61.60
69677;DHT22;56914;51.058;9.326;2023-02-24T01:24:33;13.00;61.70
69677;DHT22;56914;51.058;9.326;2023-02-24T01:25:36;13.00;61.70
69677;DHT22;56914;51.058;9.326;2023-02-24T01:26:40;13.00;62.30
69677;DHT22;56914;51.058;9.326;2023-02-24T01:27:42;13.00;61.70
69677;DHT22;56914;51.058;9.326;2023-02-24T01:28:46;13.00;61.70
69677;DHT22;56914;51.058;9.326;2023-02-24T01:29:49;13.00;61.70
69677;DHT22;56914;51.058;9.326;2023-02-24T01:30:52;13.00;61.70
69677;DHT22;56914;51.058;9.326;2023-02-24T01:31:55;13.00;61.70
69677;DHT22;56914;51.058;9.326;2023-02-24T01:32:59;13.00;61.70
69677;DHT22;56914;51.058;9.326;2023-02-24T01:34:03;13.00;61.60
69677;DHT22;56914;51.058;9.326;2023-02-24T01:35:08;13.00;61.60
69677;DHT22;56914;51.058;9.326;2023-02-24T01:36:14;13.00;61.70
69677;DHT22;56914;51.058;9.326;2023-02-24T01:37:18;13.00;61.70
69677;DHT22;56914;51.058;9.326;2023-02-24T01:38:21;13.00;61.70
69677;DHT22;56914;51.058;9.326;2023-02-24T01:39:27;13.00;61.80
69677;DHT22;56914;51.058;9.326;2023-02-24T01:40:33;13.00;61.80
69677;DHT22;56914;51.058;9.326;2023-02-24T01:41:38;13.00;61.80
69677;DHT22;56914;51.058;9.326;2023-02-24T01:42:42;13.00;61.80
69677;DHT22;56914;51.058;9.326;2023-02-24T01:43:58;13.00;61.80
69677;DHT22;56914;51.058;9.326;2023-02-24T01:45:13;13.00;61.80
69677;DHT22;56914;51.058;9.326;2023-02-24T01:46:16;13.10;61.80
69677;DHT22;56914;51.058;9.326;2023-02-24T01:47:21;13.00;61.70
69677;DHT22;56914;51.058;9.326;2023-02-24T01:48:25;13.00;61.70
69677;DHT22;56914;51.058;9.326;2023-02-24T01:49:36;13.00;61.80
69677;DHT22;56914;51.058;9.326;2023-02-24T01:50:40;13.00;61.70
69677;DHT22;56914;51.058;9.326;2023-02-24T01:51:48;13.00;61.70
69677;DHT22;56914;51.058;9.326;2023-02-24T01:52:54;13.00;61.80
69677;DHT22;56914;51.058;9.326;2023-02-24T01:54:01;13.00;61.70
69677;DHT22;56914;51.058;9.326;2023-02-24T01:55:10;13.00;61.80
69677;DHT22;56914;51.058;9.326;2023-02-24T01:56:16;12.90;61.80
69677;DHT22;56914;51.058;9.326;2023-02-24T01:57:20;12.90;61.90
69677;DHT22;56914;51.058;9.326;2023-02-24T01:58:27;12.90;61.90
69677;DHT22;56914;51.058;9.326;2023-02-24T01:59:34;12.90;61.90
69677;DHT22;56914;51.058;9.326;2023-02-24T02:00:38;12.90;61.90
69677;DHT22;56914;51.058;9.326;2023-02-24T02:01:47;12.90;61.90
69677;DHT22;56914;51.058;9.326;2023-02-24T02:02:49;12.90;61.80
69677;DHT22;56914;51.058;9.326;2023-02-24T02:04:01;12.90;61.80
69677;DHT22;56914;51.058;9.326;2023-02-24T02:05:08;12.90;61.80
69677;DHT22;56914;51.058;9.326;2023-02-24T02:06:12;12.90;61.80
69677;DHT22;56914;51.058;9.326;2023-02-24T02:07:21;12.90;61.80
69677;DHT22;56914;51.058;9.326;2023-02-24T02:08:25;12.90;61.90
69677;DHT22;56914;51.058;9.326;2023-02-24T02:09:29;12.90;61.90
69677;DHT22;56914;51.058;9.326;2023-02-24T02:10:31;12.90;61.90
69677;DHT22;56914;51.058;9.326;2023-02-24T02:11:37;12.90;62.00
69677;DHT22;56914;51.058;9.326;2023-02-24T02:12:42;12.90;62.10
69677;DHT22;56914;51.058;9.326;2023-02-24T02:13:48;12.90;62.20
69677;DHT22;56914;51.058;9.326;2023-02-24T02:14:56;12.90;62.20
69677;DHT22;56914;51.058;9.326;2023-02-24T02:16:37;12.90;62.20
69677;DHT22;56914;51.058;9.326;2023-02-24T02:17:54;12.90;62.20
69677;DHT22;56914;51.058;9.326;2023-02-24T02:20:55;12.90;62.10
69677;DHT22;56914;51.058;9.326;2023-02-24T02:22:12;12.90;62.10
69677;DHT22;56914;51.058;9.326;2023-02-24T02:25:07;12.90;62.10
69677;DHT22;56914;51.058;9.326;2023-02-24T02:28:29;13.00;62.10
69677;DHT22;56914;51.058;9.326;2023-02-24T02:31:51;13.00;62.00
69677;DHT22;56914;51.058;9.326;2023-02-24T02:34:48;13.00;61.80
69677;DHT22;56914;51.058;9.326;2023-02-24T02:36:02;13.00;61.80
69677;DHT22;56914;51.058;9.326;2023-02-24T02:37:11;13.00;61.80
69677;DHT22;56914;51.058;9.326;2023-02-24T02:38:22;13.00;61.80
69677;DHT22;56914;51.058;9.326;2023-02-24T02:39:39;13.10;61.80
69677;DHT22;56914;51.058;9.326;2023-02-24T02:40:52;13.10;61.80
69677;DHT22;56914;51.058;9.326;2023-02-24T02:42:07;13.10;61.80
69677;DHT22;56914;51.058;9.326;2023-02-24T02:43:31;13.10;61.80
69677;DHT22;56914;51.058;9.326;2023-02-24T02:44:38;13.00;61.90
69677;DHT22;56914;51.058;9.326;2023-02-24T02:45:53;13.00;61.90
69677;DHT22;56914;51.058;9.326;2023-02-24T02:47:09;13.00;61.90
69677;DHT22;56914;51.058;9.326;2023-02-24T02:48:18;13.00;62.00
69677;DHT22;56914;51.058;9.326;2023-02-24T02:49:28;13.00;62.00
69677;DHT22;56914;51.058;9.326;2023-02-24T02:50:38;13.00;62.00
69677;DHT22;56914;51.058;9.326;2023-02-24T02:51:49;13.00;61.90
69677;DHT22;56914;51.058;9.326;2023-02-24T02:52:57;13.00;62.00
69677;DHT22;56914;51.058;9.326;2023-02-24T02:54:08;13.00;62.00
69677;DHT22;56914;51.058;9.326;2023-02-24T02:55:17;12.90;62.10
69677;DHT22;56914;51.058;9.326;2023-02-24T02:56:31;12.70;62.20
69677;DHT22;56914;51.058;9.326;2023-02-24T02:57:39;12.60;62.20
69677;DHT22;56914;51.058;9.326;2023-02-24T02:58:51;12.40;62.60
69677;DHT22;56914;51.058;9.326;2023-02-24T02:59:59;12.20;62.90
69677;DHT22;56914;51.058;9.326;2023-02-24T03:01:11;12.10;63.20
69677;DHT22;56914;51.058;9.326;2023-02-24T03:02:20;12.00;63.50
69677;DHT22;56914;51.058;9.326;2023-02-24T03:03:33;11.90;63.70
69677;DHT22;56914;51.058;9.326;2023-02-24T03:04:41;11.80;63.90
69677;DHT22;56914;51.058;9.326;2023-02-24T03:05:53;11.70;64.20
69677;DHT22;56914;51.058;9.326;2023-02-24T03:07:02;11.70;64.40
69677;DHT22;56914;51.058;9.326;2023-02-24T03:08:08;11.70;64.50
69677;DHT22;56914;51.058;9.326;2023-02-24T03:09:19;11.60;64.30
69677;DHT22;56914;51.058;9.326;2023-02-24T03:10:25;11.60;64.30
69677;DHT22;56914;51.058;9.326;2023-02-24T03:11:29;11.50;64.60
69677;DHT22;56914;51.058;9.326;2023-02-24T03:12:33;11.40;64.80
69677;DHT22;56914;51.058;9.326;2023-02-24T03:13:41;11.40;65.00
69677;DHT22;56914;51.058;9.326;2023-02-24T03:14:52;11.30;65.20
69677;DHT22;56914;51.058;9.326;2023-02-24T03:16:02;11.30;65.20
69677;DHT22;56914;51.058;9.326;2023-02-24T03:17:10;11.30;65.10
69677;DHT22;56914;51.058;9.326;2023-02-24T03:18:20;11.20;65.20
69677;DHT22;56914;51.058;9.326;2023-02-24T03:19:34;11.20;65.20
69677;DHT22;56914;51.058;9.326;2023-02-24T03:20:43;11.10;65.40
69677;DHT22;56914;51.058;9.326;2023-02-24T03:21:56;11.10;65.60
69677;DHT22;56914;51.058;9.326;2023-02-24T03:23:06;11.00;65.50
69677;DHT22;56914;51.058;9.326;2023-02-24T03:24:11;11.00;65.50
69677;DHT22;56914;51.058;9.326;2023-02-24T03:25:19;11.00;65.40
69677;DHT22;56914;51.058;9.326;2023-02-24T03:26:29;10.90;65.30
69677;DHT22;56914;51.058;9.326;2023-02-24T03:27:41;10.90;65.30
69677;DHT22;56914;51.058;9.326;2023-02-24T03:28:53;10.70;65.30
69677;DHT22;56914;51.058;9.326;2023-02-24T03:30:05;10.70;65.60
69677;DHT22;56914;51.058;9.326;2023-02-24T03:31:15;10.70;65.70
69677;DHT22;56914;51.058;9.326;2023-02-24T03:32:25;10.70;65.80
69677;DHT22;56914;51.058;9.326;2023-02-24T03:33:39;10.70;65.70
69677;DHT22;56914;51.058;9.326;2023-02-24T03:34:52;10.60;65.50
69677;DHT22;56914;51.058;9.326;2023-02-24T03:35:56;10.50;65.80
69677;DHT22;56914;51.058;9.326;2023-02-24T03:37:04;10.50;66.00
69677;DHT22;56914;51.058;9.326;2023-02-24T03:38:07;10.50;65.70
69677;DHT22;56914;51.058;9.326;2023-02-24T03:39:11;10.50;65.60
69677;DHT22;56914;51.058;9.326;2023-02-24T03:40:14;10.50;65.60
69677;DHT22;56914;51.058;9.326;2023-02-24T03:41:18;10.60;65.70
69677;DHT22;56914;51.058;9.326;2023-02-24T03:42:22;10.60;65.70
69677;DHT22;56914;51.058;9.326;2023-02-24T03:43:30;10.60;65.70
69677;DHT22;56914;51.058;9.326;2023-02-24T03:44:33;10.60;65.60
69677;DHT22;56914;51.058;9.326;2023-02-24T03:45:38;10.70;65.60
69677;DHT22;56914;51.058;9.326;2023-02-24T03:46:41;10.70;65.40
69677;DHT22;56914;51.058;9.326;2023-02-24T03:47:45;10.70;65.40
69677;DHT22;56914;51.058;9.326;2023-02-24T03:48:54;10.70;65.20
69677;DHT22;56914;51.058;9.326;2023-02-24T03:49:59;10.80;65.20
69677;DHT22;56914;51.058;9.326;2023-02-24T03:51:01;10.80;65.10
69677;DHT22;56914;51.058;9.326;2023-02-24T03:52:16;10.90;65.10
69677;DHT22;56914;51.058;9.326;2023-02-24T03:53:31;11.00;64.90
69677;DHT22;56914;51.058;9.326;2023-02-24T03:55:03;11.00;64.40
69677;DHT22;56914;51.058;9.326;2023-02-24T03:56:19;11.00;64.10
69677;DHT22;56914;51.058;9.326;2023-02-24T03:57:40;11.00;64.30
69677;DHT22;56914;51.058;9.326;2023-02-24T03:59:08;11.10;64.10
69677;DHT22;56914;51.058;9.326;2023-02-24T04:00:22;11.00;63.90
69677;DHT22;56914;51.058;9.326;2023-02-24T04:01:33;11.10;64.50
69677;DHT22;56914;51.058;9.326;2023-02-24T04:02:39;11.10;63.80
69677;DHT22;56914;51.058;9.326;2023-02-24T04:03:52;11.10;63.70
69677;DHT22;56914;51.058;9.326;2023-02-24T04:05:07;11.20;63.80
69677;DHT22;56914;51.058;9.326;2023-02-24T04:06:17;11.20;63.60
69677;DHT22;56914;51.058;9.326;2023-02-24T04:07:36;11.20;63.60
69677;DHT22;56914;51.058;9.326;2023-02-24T04:08:44;11.20;63.50
69677;DHT22;56914;51.058;9.326;2023-02-24T04:10:01;11.20;63.40
69677;DHT22;56914;51.058;9.326;2023-02-24T04:11:13;11.20;63.40
69677;DHT22;56914;51.058;9.326;2023-02-24T04:12:25;11.20;63.30
69677;DHT22;56914;51.058;9.326;2023-02-24T04:13:35;11.20;63.30
69677;DHT22;56914;51.058;9.326;2023-02-24T04:14:49;11.10;63.50
69677;DHT22;56914;51.058;9.326;2023-02-24T04:15:58;11.10;63.70
69677;DHT22;56914;51.058;9.326;2023-02-24T04:17:07;11.10;63.40
69677;DHT22;56914;51.058;9.326;2023-02-24T04:18:16;11.00;63.50
69677;DHT22;56914;51.058;9.326;2023-02-24T04:19:23;11.00;63.60
69677;DHT22;56914;51.058;9.326;2023-02-24T04:20:33;11.00;63.60
69677;DHT22;56914;51.058;9.326;2023-02-24T04:21:39;11.10;63.80
69677;DHT22;56914;51.058;9.326;2023-02-24T04:22:48;11.10;63.40
69677;DHT22;56914;51.058;9.326;2023-02-24T04:23:53;11.10;63.30
69677;DHT22;56914;51.058;9.326;2023-02-24T04:24:58;11.10;63.40
69677;DHT22;56914;51.058;9.326;2023-02-24T04:26:04;11.00;63.40
69677;DHT22;56914;51.058;9.326;2023-02-24T04:27:10;11.00;63.50
69677;DHT22;56914;51.058;9.326;2023-02-24T04:28:16;11.00;63.40
69677;DHT22;56914;51.058;9.326;2023-02-24T04:29:22;11.00;63.20
69677;DHT22;56914;51.058;9.326;2023-02-24T04:30:31;10.90;63.40
69677;DHT22;56914;51.058;9.326;2023-02-24T04:31:37;10.90;63.30
69677;DHT22;56914;51.058;9.326;2023-02-24T04:32:40;11.00;63.80
69677;DHT22;56914;51.058;9.326;2023-02-24T04:33:45;11.00;63.60
69677;DHT22;56914;51.058;9.326;2023-02-24T04:34:51;11.00;63.60
69677;DHT22;56914;51.058;9.326;2023-02-24T04:35:54;11.00;63.20
69677;DHT22;56914;51.058;9.326;2023-02-24T04:36:57;11.00;63.30
69677;DHT22;56914;51.058;9.326;2023-02-24T04:38:04;11.10;63.30
69677;DHT22;56914;51.058;9.326;2023-02-24T04:39:06;11.10;63.00
69677;DHT22;56914;51.058;9.326;2023-02-24T04:40:10;11.10;63.00
69677;DHT22;56914;51.058;9.326;2023-02-24T04:41:14;11.10;62.90
69677;DHT22;56914;51.058;9.326;2023-02-24T04:42:22;11.10;62.90
69677;DHT22;56914;51.058;9.326;2023-02-24T04:43:24;11.10;62.90
69677;DHT22;56914;51.058;9.326;2023-02-24T04:44:27;11.10;62.90
69677;DHT22;56914;51.058;9.326;2023-02-24T04:45:30;11.10;62.90
69677;DHT22;56914;51.058;9.326;2023-02-24T04:46:33;11.00;62.70
69677;DHT22;56914;51.058;9.326;2023-02-24T04:47:35;10.90;62.70
69677;DHT22;56914;51.058;9.326;2023-02-24T04:48:39;10.90;62.80
69677;DHT22;56914;51.058;9.326;2023-02-24T04:49:41;10.90;62.90
69677;DHT22;56914;51.058;9.326;2023-02-24T04:50:45;10.90;63.00
69677;DHT22;56914;51.058;9.326;2023-02-24T04:51:47;10.90;63.10
69677;DHT22;56914;51.058;9.326;2023-02-24T04:52:55;10.90;63.00
69677;DHT22;56914;51.058;9.326;2023-02-24T04:54:03;10.90;63.00
69677;DHT22;56914;51.058;9.326;2023-02-24T04:55:06;11.00;63.10
69677;DHT22;56914;51.058;9.326;2023-02-24T04:56:11;11.00;63.10
69677;DHT22;56914;51.058;9.326;2023-02-24T04:57:13;11.00;63.20
69677;DHT22;56914;51.058;9.326;2023-02-24T04:58:19;11.10;63.20
69677;DHT22;56914;51.058;9.326;2023-02-24T04:59:21;11.10;63.10
69677;DHT22;56914;51.058;9.326;2023-02-24T05:00:26;11.10;62.90
69677;DHT22;56914;51.058;9.326;2023-02-24T05:01:34;11.20;62.80
69677;DHT22;56914;51.058;9.326;2023-02-24T05:02:37;11.20;62.80
69677;DHT22;56914;51.058;9.326;2023-02-24T05:03:39;11.20;62.60
69677;DHT22;56914;51.058;9.326;2023-02-24T05:04:44;11.20;62.40
69677;DHT22;56914;51.058;9.326;2023-02-24T05:05:50;11.20;62.50
69677;DHT22;56914;51.058;9.326;2023-02-24T05:06:53;11.20;62.40
69677;DHT22;56914;51.058;9.326;2023-02-24T05:08:00;11.20;62.40
69677;DHT22;56914;51.058;9.326;2023-02-24T05:09:06;11.10;62.30
69677;DHT22;56914;51.058;9.326;2023-02-24T05:10:15;11.10;63.00
69677;DHT22;56914;51.058;9.326;2023-02-24T05:11:19;11.20;62.50
69677;DHT22;56914;51.058;9.326;2023-02-24T05:12:23;11.10;62.40
69677;DHT22;56914;51.058;9.326;2023-02-24T05:13:27;11.10;62.30
69677;DHT22;56914;51.058;9.326;2023-02-24T05:14:32;11.10;61.60
69677;DHT22;56914;51.058;9.326;2023-02-24T05:15:39;11.10;61.90
69677;DHT22;56914;51.058;9.326;2023-02-24T05:16:44;11.00;61.90
69677;DHT22;56914;51.058;9.326;2023-02-24T05:17:46;11.00;62.00
69677;DHT22;56914;51.058;9.326;2023-02-24T05:18:52;11.00;62.00
69677;DHT22;56914;51.058;9.326;2023-02-24T05:20:14;11.00;62.00
69677;DHT22;56914;51.058;9.326;2023-02-24T05:21:35;11.10;62.10
69677;DHT22;56914;51.058;9.326;2023-02-24T05:22:37;11.10;62.00
69677;DHT22;56914;51.058;9.326;2023-02-24T05:23:42;11.10;62.00
69677;DHT22;56914;51.058;9.326;2023-02-24T05:24:46;11.00;61.40
69677;DHT22;56914;51.058;9.326;2023-02-24T05:25:50;11.00;61.50
69677;DHT22;56914;51.058;9.326;2023-02-24T05:26:56;11.00;61.70
69677;DHT22;56914;51.058;9.326;2023-02-24T05:28:00;11.00;61.80
69677;DHT22;56914;51.058;9.326;2023-02-24T05:29:05;11.00;61.70
69677;DHT22;56914;51.058;9.326;2023-02-24T05:30:10;11.00;61.60
69677;DHT22;56914;51.058;9.326;2023-02-24T05:31:15;11.00;61.60
69677;DHT22;56914;51.058;9.326;2023-02-24T05:32:19;11.00;61.60
69677;DHT22;56914;51.058;9.326;2023-02-24T05:33:21;11.00;61.60
69677;DHT22;56914;51.058;9.326;2023-02-24T05:34:25;11.00;61.60
69677;DHT22;56914;51.058;9.326;2023-02-24T05:35:28;11.00;61.60
69677;DHT22;56914;51.058;9.326;2023-02-24T05:36:35;11.10;61.60
69677;DHT22;56914;51.058;9.326;2023-02-24T05:37:38;11.10;61.50
69677;DHT22;56914;51.058;9.326;2023-02-24T05:38:44;11.10;61.10
69677;DHT22;56914;51.058;9.326;2023-02-24T05:39:48;11.10;61.10
69677;DHT22;56914;51.058;9.326;2023-02-24T05:40:51;11.10;61.20
69677;DHT22;56914;51.058;9.326;2023-02-24T05:41:58;11.10;61.10
69677;DHT22;56914;51.058;9.326;2023-02-24T05:43:06;11.10;61.20
69677;DHT22;56914;51.058;9.326;2023-02-24T05:44:12;11.10;61.10
69677;DHT22;56914;51.058;9.326;2023-02-24T05:45:16;11.10;61.10
69677;DHT22;56914;51.058;9.326;2023-02-24T05:46:19;11.20;61.70
69677;DHT22;56914;51.058;9.326;2023-02-24T05:47:29;11.20;61.00
69677;DHT22;56914;51.058;9.326;2023-02-24T05:48:31;11.20;60.90
69677;DHT22;56914;51.058;9.326;2023-02-24T05:49:36;11.20;60.90
69677;DHT22;56914;51.058;9.326;2023-02-24T05:50:39;11.30;60.90
69677;DHT22;56914;51.058;9.326;2023-02-24T05:51:43;11.30;60.90
69677;DHT22;56914;51.058;9.326;2023-02-24T05:52:55;11.30;60.90
69677;DHT22;56914;51.058;9.326;2023-02-24T05:53:58;11.20;60.40
69677;DHT22;56914;51.058;9.326;2023-02-24T05:55:03;11.20;60.60
69677;DHT22;56914;51.058;9.326;2023-02-24T05:56:08;11.30;60.60
69677;DHT22;56914;51.058;9.326;2023-02-24T05:57:13;11.30;60.70
69677;DHT22;56914;51.058;9.326;2023-02-24T05:58:17;11.20;61.10
69677;DHT22;56914;51.058;9.326;2023-02-24T05:59:19;11.20;60.60
69677;DHT22;56914;51.058;9.326;2023-02-24T06:00:23;11.20;60.70
69677;DHT22;56914;51.058;9.326;2023-02-24T06:01:27;11.20;60.80
69677;DHT22;56914;51.058;9.326;2023-02-24T06:02:31;11.30;60.90
69677;DHT22;56914;51.058;9.326;2023-02-24T06:03:38;11.30;60.90
69677;DHT22;56914;51.058;9.326;2023-02-24T06:04:44;11.30;60.90
69677;DHT22;56914;51.058;9.326;2023-02-24T06:05:52;11.30;60.90
69677;DHT22;56914;51.058;9.326;2023-02-24T06:06:55;11.30;60.80
69677;DHT22;56914;51.058;9.326;2023-02-24T06:07:58;11.30;60.90
69677;DHT22;56914;51.058;9.326;2023-02-24T06:09:10;11.30;61.40
69677;DHT22;56914;51.058;9.326;2023-02-24T06:10:15;11.40;60.70
69677;DHT22;56914;51.058;9.326;2023-02-24T06:11:19;11.30;60.70
69677;DHT22;56914;51.058;9.326;2023-02-24T06:12:25;11.40;60.70
69677;DHT22;56914;51.058;9.326;2023-02-24T06:13:29;11.30;60.70
69677;DHT22;56914;51.058;9.326;2023-02-24T06:14:32;11.30;60.70
69677;DHT22;56914;51.058;9.326;2023-02-24T06:15:35;11.30;60.60
69677;DHT22;56914;51.058;9.326;2023-02-24T06:16:40;11.30;60.60
69677;DHT22;56914;51.058;9.326;2023-02-24T06:17:44;11.30;60.60
69677;DHT22;56914;51.058;9.326;2023-02-24T06:18:48;11.40;60.60
69677;DHT22;56914;51.058;9.326;2023-02-24T06:19:52;11.40;60.60
69677;DHT22;56914;51.058;9.326;2023-02-24T06:20:54;11.30;60.50
69677;DHT22;56914;51.058;9.326;2023-02-24T06:21:59;11.30;60.60
69677;DHT22;56914;51.058;9.326;2023-02-24T06:23:02;11.30;60.50
69677;DHT22;56914;51.058;9.326;2023-02-24T06:24:10;11.30;60.60
69677;DHT22;56914;51.058;9.326;2023-02-24T06:25:17;11.20;60.20
69677;DHT22;56914;51.058;9.326;2023-02-24T06:26:20;11.10;60.40
69677;DHT22;56914;51.058;9.326;2023-02-24T06:27:22;11.00;60.60
69677;DHT22;56914;51.058;9.326;2023-02-24T06:28:26;10.90;60.70
69677;DHT22;56914;51.058;9.326;2023-02-24T06:29:29;10.90;60.90
69677;DHT22;56914;51.058;9.326;2023-02-24T06:30:32;10.90;61.00
69677;DHT22;56914;51.058;9.326;2023-02-24T06:31:35;10.90;61.10
69677;DHT22;56914;51.058;9.326;2023-02-24T06:32:39;10.80;61.00
69677;DHT22;56914;51.058;9.326;2023-02-24T06:33:41;10.80;61.00
69677;DHT22;56914;51.058;9.326;2023-02-24T06:34:45;10.80;61.20
69677;DHT22;56914;51.058;9.326;2023-02-24T06:35:47;10.70;61.30
69677;DHT22;56914;51.058;9.326;2023-02-24T06:36:51;10.70;61.40
69677;DHT22;56914;51.058;9.326;2023-02-24T06:37:53;10.70;61.50
69677;DHT22;56914;51.058;9.326;2023-02-24T06:38:57;10.70;61.50
69677;DHT22;56914;51.058;9.326;2023-02-24T06:39:59;10.70;62.00
69677;DHT22;56914;51.058;9.326;2023-02-24T06:41:04;10.80;61.50
69677;DHT22;56914;51.058;9.326;2023-02-24T06:42:11;10.80;61.40
69677;DHT22;56914;51.058;9.326;2023-02-24T06:43:15;10.80;61.30
69677;DHT22;56914;51.058;9.326;2023-02-24T06:44:18;10.90;61.40
69677;DHT22;56914;51.058;9.326;2023-02-24T06:45:22;10.90;61.30
69677;DHT22;56914;51.058;9.326;2023-02-24T06:46:25;10.90;61.20
69677;DHT22;56914;51.058;9.326;2023-02-24T06:47:28;10.90;61.20
69677;DHT22;56914;51.058;9.326;2023-02-24T06:48:30;10.90;61.20
69677;DHT22;56914;51.058;9.326;2023-02-24T06:49:34;10.90;61.20
69677;DHT22;56914;51.058;9.326;2023-02-24T06:50:37;10.90;61.20
69677;DHT22;56914;51.058;9.326;2023-02-24T06:51:43;10.90;61.10
69677;DHT22;56914;51.058;9.326;2023-02-24T06:52:45;10.90;61.10
69677;DHT22;56914;51.058;9.326;2023-02-24T06:53:50;10.90;61.00
69677;DHT22;56914;51.058;9.326;2023-02-24T06:54:53;10.90;61.10
69677;DHT22;56914;51.058;9.326;2023-02-24T06:55:56;10.90;61.00
69677;DHT22;56914;51.058;9.326;2023-02-24T06:56:59;10.90;61.10
69677;DHT22;56914;51.058;9.326;2023-02-24T06:58:04;10.90;61.10
69677;DHT22;56914;51.058;9.326;2023-02-24T06:59:06;10.90;61.10
69677;DHT22;56914;51.058;9.326;2023-02-24T07:00:13;10.90;61.10
69677;DHT22;56914;51.058;9.326;2023-02-24T07:01:21;10.90;60.90
69677;DHT22;56914;51.058;9.326;2023-02-24T07:02:26;10.90;60.90
69677;DHT22;56914;51.058;9.326;2023-02-24T07:03:40;11.00;60.90
69677;DHT22;56914;51.058;9.326;2023-02-24T07:04:48;11.00;60.80
69677;DHT22;56914;51.058;9.326;2023-02-24T07:05:56;11.00;60.80
69677;DHT22;56914;51.058;9.326;2023-02-24T07:07:13;11.00;60.80
69677;DHT22;56914;51.058;9.326;2023-02-24T07:08:20;11.00;60.80
69677;DHT22;56914;51.058;9.326;2023-02-24T07:09:25;11.00;60.80
69677;DHT22;56914;51.058;9.326;2023-02-24T07:10:28;11.00;60.60